sensor_id;sensor_type;location;lat;lon;timestamp;pressure;altitude;pressure_sealevel;temperature;humidity
20019;BME280;10170;42.502;26.526;2023-04-28T00:00:13;99907.47;;;9.57;100.00
20019;BME280;10170;42.502;26.526;2023-04-28T00:02:40;99905.53;;;9.45;100.00
20019;BME280;10170;42.502;26.526;2023-04-28T00:05:07;99908.19;;;9.45;100.00
20019;BME280;10170;42.502;26.526;2023-04-28T00:07:34;99907.50;;;9.36;100.00
20019;BME280;10170;42.502;26.526;2023-04-28T00:10:01;99912.56;;;9.31;100.00
20019;BME280;10170;42.502;26.526;2023-04-28T00:12:28;99910.13;;;9.30;100.00
20019;BME280;10170;42.502;26.526;2023-04-28T00:14:55;99910.63;;;9.19;100.00
20019;BME280;10170;42.502;26.526;2023-04-28T00:17:21;99916.81;;;9.05;100.00
20019;BME280;10170;42.502;26.526;2023-04-28T00:19:49;99908.16;;;8.96;100.00
20019;BME280;10170;42.502;26.526;2023-04-28T00:22:16;99905.56;;;8.82;100.00
20019;BME280;10170;42.502;26.526;2023-04-28T00:24:42;99910.91;;;8.67;100.00
20019;BME280;10170;42.502;26.526;2023-04-28T00:27:09;99903.25;;;8.58;100.00
20019;BME280;10170;42.502;26.526;2023-04-28T00:29:36;99905.38;;;8.47;100.00
20019;BME280;10170;42.502;26.526;2023-04-28T00:32:03;99907.50;;;8.37;100.00
20019;BME280;10170;42.502;26.526;2023-04-28T00:34:33;99903.59;;;8.33;100.00
20019;BME280;10170;42.502;26.526;2023-04-28T00:37:02;99906.97;;;8.27;100.00
20019;BME280;10170;42.502;26.526;2023-04-28T00:39:30;99906.84;;;8.35;100.00
20019;BME280;10170;42.502;26.526;2023-04-28T00:41:57;99899.41;;;8.24;100.00
20019;BME280;10170;42.502;26.526;2023-04-28T00:44:23;99907.03;;;8.19;100.00
20019;BME280;10170;42.502;26.526;2023-04-28T00:46:50;99915.59;;;8.21;100.00
20019;BME280;10170;42.502;26.526;2023-04-28T00:49:17;99900.09;;;8.04;100.00
20019;BME280;10170;42.502;26.526;2023-04-28T00:51:44;99906.50;;;8.09;100.00
20019;BME280;10170;42.502;26.526;2023-04-28T00:54:14;99915.28;;;8.10;100.00
20019;BME280;10170;42.502;26.526;2023-04-28T00:56:45;99911.72;;;8.03;100.00
20019;BME280;10170;42.502;26.526;2023-04-28T00:59:12;99920.28;;;8.05;100.00
20019;BME280;10170;42.502;26.526;2023-04-28T01:01:39;99926.38;;;8.05;100.00
20019;BME280;10170;42.502;26.526;2023-04-28T01:04:06;99917.00;;;8.03;100.00
20019;BME280;10170;42.502;26.526;2023-04-28T01:06:34;99917.53;;;7.98;100.00
20019;BME280;10170;42.502;26.526;2023-04-28T01:09:02;99915.00;;;7.90;100.00
20019;BME280;10170;42.502;26.526;2023-04-28T01:11:28;99914.16;;;7.90;100.00
20019;BME280;10170;42.502;26.526;2023-04-28T01:13:55;99920.81;;;7.86;100.00
20019;BME280;10170;42.502;26.526;2023-04-28T01:16:22;99924.56;;;7.91;100.00
20019;BME280;10170;42.502;26.526;2023-04-28T01:18:51;99924.75;;;7.90;100.00
20019;BME280;10170;42.502;26.526;2023-04-28T01:21:27;99928.94;;;7.84;100.00
20019;BME280;10170;42.502;26.526;2023-04-28T01:23:59;99937.63;;;7.93;100.00
20019;BME280;10170;42.502;26.526;2023-04-28T01:26:26;99939.56;;;7.99;100.00
20019;BME280;10170;42.502;26.526;2023-04-28T01:28:53;99943.56;;;7.95;100.00
20019;BME280;10170;42.502;26.526;2023-04-28T01:31:20;99947.50;;;7.99;100.00
20019;BME280;10170;42.502;26.526;2023-04-28T01:33:47;99941.75;;;7.95;100.00
20019;BME280;10170;42.502;26.526;2023-04-28T01:36:14;99949.94;;;8.00;100.00
20019;BME280;10170;42.502;26.526;2023-04-28T01:38:41;99960.81;;;8.05;100.00
20019;BME280;10170;42.502;26.526;2023-04-28T01:41:07;99965.41;;;8.11;100.00
20019;BME280;10170;42.502;26.526;2023-04-28T01:43:34;99963.38;;;8.13;100.00
20019;BME280;10170;42.502;26.526;2023-04-28T01:46:01;99961.38;;;8.15;100.00
20019;BME280;10170;42.502;26.526;2023-04-28T01:48:28;99963.84;;;8.17;100.00
20019;BME280;10170;42.502;26.526;2023-04-28T01:50:55;99959.09;;;8.12;100.00
20019;BME280;10170;42.502;26.526;2023-04-28T01:53:21;99958.19;;;8.20;100.00
20019;BME280;10170;42.502;26.526;2023-04-28T01:55:48;99970.72;;;8.26;100.00
20019;BME280;10170;42.502;26.526;2023-04-28T01:58:15;99965.75;;;8.23;100.00
20019;BME280;10170;42.502;26.526;2023-04-28T02:00:42;99974.09;;;8.34;100.00
20019;BME280;10170;42.502;26.526;2023-04-28T02:03:08;99968.34;;;8.45;100.00
20019;BME280;10170;42.502;26.526;2023-04-28T02:05:35;99976.28;;;8.45;100.00
20019;BME280;10170;42.502;26.526;2023-04-28T02:08:02;99970.09;;;8.38;100.00
20019;BME280;10170;42.502;26.526;2023-04-28T02:10:29;99980.88;;;8.37;100.00
20019;BME280;10170;42.502;26.526;2023-04-28T02:12:56;99985.59;;;8.41;100.00
20019;BME280;10170;42.502;26.526;2023-04-28T02:15:23;99986.06;;;8.45;100.00
20019;BME280;10170;42.502;26.526;2023-04-28T02:17:50;99990.25;;;8.54;100.00
20019;BME280;10170;42.502;26.526;2023-04-28T02:20:17;99987.06;;;8.59;100.00
20019;BME280;10170;42.502;26.526;2023-04-28T02:22:44;99985.69;;;8.63;100.00
20019;BME280;10170;42.502;26.526;2023-04-28T02:25:11;99997.28;;;8.62;100.00
20019;BME280;10170;42.502;26.526;2023-04-28T02:27:38;99998.66;;;8.72;100.00
20019;BME280;10170;42.502;26.526;2023-04-28T02:30:05;99998.84;;;8.71;100.00
20019;BME280;10170;42.502;26.526;2023-04-28T02:32:32;100014.28;;;8.67;100.00
20019;BME280;10170;42.502;26.526;2023-04-28T02:35:00;100007.50;;;8.79;100.00
20019;BME280;10170;42.502;26.526;2023-04-28T02:37:26;99998.06;;;8.77;100.00
20019;BME280;10170;42.502;26.526;2023-04-28T02:39:53;99985.88;;;8.61;100.00
20019;BME280;10170;42.502;26.526;2023-04-28T02:42:20;100001.56;;;8.77;100.00
20019;BME280;10170;42.502;26.526;2023-04-28T02:44:47;100001.84;;;8.68;100.00
20019;BME280;10170;42.502;26.526;2023-04-28T02:47:14;100007.44;;;8.58;100.00
20019;BME280;10170;42.502;26.526;2023-04-28T02:49:41;100004.03;;;8.64;100.00
20019;BME280;10170;42.502;26.526;2023-04-28T02:52:07;99999.81;;;8.70;100.00
20019;BME280;10170;42.502;26.526;2023-04-28T02:54:35;99990.38;;;8.31;100.00
20019;BME280;10170;42.502;26.526;2023-04-28T02:57:03;100017.59;;;8.40;100.00
20019;BME280;10170;42.502;26.526;2023-04-28T02:59:32;100024.72;;;8.39;100.00
20019;BME280;10170;42.502;26.526;2023-04-28T03:01:59;100043.06;;;8.41;100.00
20019;BME280;10170;42.502;26.526;2023-04-28T03:04:26;100025.34;;;8.27;100.00
20019;BME280;10170;42.502;26.526;2023-04-28T03:06:53;100051.66;;;8.43;100.00
20019;BME280;10170;42.502;26.526;2023-04-28T03:09:21;100054.88;;;8.38;100.00
20019;BME280;10170;42.502;26.526;2023-04-28T03:11:47;100067.34;;;8.30;100.00
20019;BME280;10170;42.502;26.526;2023-04-28T03:14:14;100075.78;;;8.33;100.00
20019;BME280;10170;42.502;26.526;2023-04-28T03:16:41;100074.78;;;8.34;100.00
20019;BME280;10170;42.502;26.526;2023-04-28T03:19:08;100073.47;;;8.30;100.00
20019;BME280;10170;42.502;26.526;2023-04-28T03:21:35;100082.72;;;8.34;100.00
20019;BME280;10170;42.502;26.526;2023-04-28T03:24:02;100084.34;;;8.35;100.00
20019;BME280;10170;42.502;26.526;2023-04-28T03:26:31;100080.19;;;8.56;100.00
20019;BME280;10170;42.502;26.526;2023-04-28T03:28:58;100087.22;;;8.78;100.00
20019;BME280;10170;42.502;26.526;2023-04-28T03:31:25;100086.50;;;8.69;100.00
20019;BME280;10170;42.502;26.526;2023-04-28T03:33:52;100084.00;;;8.68;100.00
20019;BME280;10170;42.502;26.526;2023-04-28T03:36:19;100096.91;;;8.71;100.00
20019;BME280;10170;42.502;26.526;2023-04-28T03:38:46;100102.41;;;8.69;100.00
20019;BME280;10170;42.502;26.526;2023-04-28T03:41:12;100108.81;;;8.75;100.00
20019;BME280;10170;42.502;26.526;2023-04-28T03:43:39;100105.53;;;8.73;100.00
20019;BME280;10170;42.502;26.526;2023-04-28T03:46:06;100117.50;;;8.83;100.00
20019;BME280;10170;42.502;26.526;2023-04-28T03:48:33;100129.09;;;8.97;100.00
20019;BME280;10170;42.502;26.526;2023-04-28T03:51:00;100122.34;;;8.94;100.00
20019;BME280;10170;42.502;26.526;2023-04-28T03:53:27;100116.59;;;8.91;100.00
20019;BME280;10170;42.502;26.526;2023-04-28T03:55:53;100125.00;;;8.94;100.00
20019;BME280;10170;42.502;26.526;2023-04-28T03:58:20;100127.72;;;9.01;100.00
20019;BME280;10170;42.502;26.526;2023-04-28T04:00:47;100134.56;;;9.10;100.00
20019;BME280;10170;42.502;26.526;2023-04-28T04:03:14;100132.19;;;9.15;100.00
20019;BME280;10170;42.502;26.526;2023-04-28T04:05:42;100137.56;;;9.21;100.00
20019;BME280;10170;42.502;26.526;2023-04-28T04:08:09;100131.53;;;9.27;100.00
20019;BME280;10170;42.502;26.526;2023-04-28T04:10:36;100134.63;;;9.31;100.00
20019;BME280;10170;42.502;26.526;2023-04-28T04:13:03;100137.19;;;9.39;100.00
20019;BME280;10170;42.502;26.526;2023-04-28T04:15:29;100137.75;;;9.70;100.00
20019;BME280;10170;42.502;26.526;2023-04-28T04:17:56;100144.22;;;9.82;100.00
20019;BME280;10170;42.502;26.526;2023-04-28T04:20:23;100141.94;;;9.79;100.00
20019;BME280;10170;42.502;26.526;2023-04-28T04:22:50;100145.91;;;9.69;100.00
20019;BME280;10170;42.502;26.526;2023-04-28T04:25:17;100128.88;;;9.63;100.00
20019;BME280;10170;42.502;26.526;2023-04-28T04:27:43;100146.56;;;9.56;100.00
20019;BME280;10170;42.502;26.526;2023-04-28T04:30:10;100153.75;;;9.41;100.00
20019;BME280;10170;42.502;26.526;2023-04-28T04:32:37;100145.19;;;9.24;100.00
20019;BME280;10170;42.502;26.526;2023-04-28T04:35:05;100148.56;;;9.18;100.00
20019;BME280;10170;42.502;26.526;2023-04-28T04:37:32;100144.00;;;8.98;100.00
20019;BME280;10170;42.502;26.526;2023-04-28T04:39:59;100148.09;;;9.00;100.00
20019;BME280;10170;42.502;26.526;2023-04-28T04:42:25;100153.59;;;8.99;100.00
20019;BME280;10170;42.502;26.526;2023-04-28T04:44:52;100153.88;;;9.04;100.00
20019;BME280;10170;42.502;26.526;2023-04-28T04:47:19;100153.22;;;9.02;100.00
20019;BME280;10170;42.502;26.526;2023-04-28T04:49:47;100159.94;;;8.98;100.00
20019;BME280;10170;42.502;26.526;2023-04-28T04:52:15;100162.38;;;8.99;100.00
20019;BME280;10170;42.502;26.526;2023-04-28T04:54:42;100171.34;;;9.13;100.00
20019;BME280;10170;42.502;26.526;2023-04-28T04:57:09;100173.47;;;9.17;100.00
20019;BME280;10170;42.502;26.526;2023-04-28T04:59:35;100172.63;;;9.17;100.00
20019;BME280;10170;42.502;26.526;2023-04-28T05:02:02;100172.25;;;9.20;100.00
20019;BME280;10170;42.502;26.526;2023-04-28T05:04:29;100180.31;;;9.41;100.00
20019;BME280;10170;42.502;26.526;2023-04-28T05:06:56;100185.63;;;9.41;100.00
20019;BME280;10170;42.502;26.526;2023-04-28T05:09:23;100188.88;;;9.43;100.00
20019;BME280;10170;42.502;26.526;2023-04-28T05:11:50;100187.53;;;9.32;100.00
20019;BME280;10170;42.502;26.526;2023-04-28T05:14:16;100186.81;;;9.24;100.00
20019;BME280;10170;42.502;26.526;2023-04-28T05:16:43;100198.97;;;9.33;100.00
20019;BME280;10170;42.502;26.526;2023-04-28T05:19:10;100192.28;;;9.37;100.00
20019;BME280;10170;42.502;26.526;2023-04-28T05:21:37;100198.13;;;9.47;100.00
20019;BME280;10170;42.502;26.526;2023-04-28T05:24:04;100195.38;;;9.55;100.00
20019;BME280;10170;42.502;26.526;2023-04-28T05:26:31;100196.53;;;9.67;100.00
20019;BME280;10170;42.502;26.526;2023-04-28T05:28:58;100204.94;;;9.85;100.00
20019;BME280;10170;42.502;26.526;2023-04-28T05:31:25;100201.63;;;9.83;100.00
20019;BME280;10170;42.502;26.526;2023-04-28T05:33:52;100208.56;;;9.84;100.00
20019;BME280;10170;42.502;26.526;2023-04-28T05:36:18;100204.31;;;10.04;100.00
20019;BME280;10170;42.502;26.526;2023-04-28T05:38:45;100203.31;;;10.05;100.00
20019;BME280;10170;42.502;26.526;2023-04-28T05:41:12;100213.63;;;10.15;100.00
20019;BME280;10170;42.502;26.526;2023-04-28T05:43:39;100204.34;;;9.90;100.00
20019;BME280;10170;42.502;26.526;2023-04-28T05:46:05;100223.84;;;9.97;100.00
20019;BME280;10170;42.502;26.526;2023-04-28T05:48:53;100220.56;;;9.95;100.00
20019;BME280;10170;42.502;26.526;2023-04-28T05:51:20;100226.69;;;9.95;100.00
20019;BME280;10170;42.502;26.526;2023-04-28T05:53:47;100216.31;;;10.00;100.00
20019;BME280;10170;42.502;26.526;2023-04-28T05:56:15;100219.94;;;9.93;100.00
20019;BME280;10170;42.502;26.526;2023-04-28T05:58:42;100225.34;;;9.85;100.00
20019;BME280;10170;42.502;26.526;2023-04-28T06:01:13;100233.31;;;10.20;100.00
20019;BME280;10170;42.502;26.526;2023-04-28T06:03:39;100225.53;;;10.19;100.00
20019;BME280;10170;42.502;26.526;2023-04-28T06:06:08;100227.44;;;10.46;100.00
20019;BME280;10170;42.502;26.526;2023-04-28T06:08:37;100218.88;;;10.50;100.00
20019;BME280;10170;42.502;26.526;2023-04-28T06:11:04;100226.16;;;10.63;100.00
20019;BME280;10170;42.502;26.526;2023-04-28T06:13:31;100224.22;;;10.72;100.00
20019;BME280;10170;42.502;26.526;2023-04-28T06:15:58;100228.34;;;11.36;100.00
20019;BME280;10170;42.502;26.526;2023-04-28T06:18:25;100236.19;;;11.91;100.00
20019;BME280;10170;42.502;26.526;2023-04-28T06:20:52;100243.09;;;12.59;100.00
20019;BME280;10170;42.502;26.526;2023-04-28T06:23:19;100240.44;;;12.98;100.00
20019;BME280;10170;42.502;26.526;2023-04-28T06:25:46;100242.09;;;13.83;89.47
20019;BME280;10170;42.502;26.526;2023-04-28T06:28:13;100240.59;;;13.93;75.36
20019;BME280;10170;42.502;26.526;2023-04-28T06:30:40;100248.09;;;13.71;75.70
20019;BME280;10170;42.502;26.526;2023-04-28T06:33:07;100240.63;;;14.37;74.93
20019;BME280;10170;42.502;26.526;2023-04-28T06:35:34;100240.63;;;14.37;62.44
20019;BME280;10170;42.502;26.526;2023-04-28T06:38:04;100244.03;;;14.51;59.22
20019;BME280;10170;42.502;26.526;2023-04-28T06:40:31;100244.94;;;13.88;60.52
20019;BME280;10170;42.502;26.526;2023-04-28T06:42:58;100251.03;;;13.57;59.54
20019;BME280;10170;42.502;26.526;2023-04-28T06:45:25;100255.00;;;13.48;61.71
20019;BME280;10170;42.502;26.526;2023-04-28T06:47:52;100251.28;;;13.42;64.60
20019;BME280;10170;42.502;26.526;2023-04-28T06:50:22;100252.56;;;12.94;65.87
20019;BME280;10170;42.502;26.526;2023-04-28T06:52:49;100256.66;;;12.97;63.68
20019;BME280;10170;42.502;26.526;2023-04-28T06:55:16;100250.09;;;12.99;62.94
20019;BME280;10170;42.502;26.526;2023-04-28T06:57:43;100252.38;;;13.02;60.63
20019;BME280;10170;42.502;26.526;2023-04-28T07:00:11;100253.56;;;13.00;60.98
20019;BME280;10170;42.502;26.526;2023-04-28T07:02:38;100242.72;;;13.08;64.02
20019;BME280;10170;42.502;26.526;2023-04-28T07:05:05;100246.41;;;13.26;65.05
20019;BME280;10170;42.502;26.526;2023-04-28T07:07:32;100247.19;;;13.40;63.88
20019;BME280;10170;42.502;26.526;2023-04-28T07:09:59;100243.88;;;14.02;66.16
20019;BME280;10170;42.502;26.526;2023-04-28T07:12:26;100242.56;;;14.17;58.87
20019;BME280;10170;42.502;26.526;2023-04-28T07:14:53;100247.25;;;14.28;59.38
20019;BME280;10170;42.502;26.526;2023-04-28T07:17:21;100245.44;;;14.16;55.14
20019;BME280;10170;42.502;26.526;2023-04-28T07:19:48;100238.19;;;14.60;58.01
20019;BME280;10170;42.502;26.526;2023-04-28T07:22:16;100240.94;;;14.10;56.80
20019;BME280;10170;42.502;26.526;2023-04-28T07:24:43;100239.28;;;14.15;57.19
20019;BME280;10170;42.502;26.526;2023-04-28T07:27:11;100239.94;;;14.04;56.39
20019;BME280;10170;42.502;26.526;2023-04-28T07:29:38;100236.03;;;14.44;55.47
20019;BME280;10170;42.502;26.526;2023-04-28T07:32:05;100232.25;;;14.58;54.18
20019;BME280;10170;42.502;26.526;2023-04-28T07:34:34;100229.47;;;14.71;54.54
20019;BME280;10170;42.502;26.526;2023-04-28T07:37:02;100224.97;;;14.41;53.84
20019;BME280;10170;42.502;26.526;2023-04-28T07:39:30;100224.50;;;14.44;55.28
20019;BME280;10170;42.502;26.526;2023-04-28T07:41:58;100215.13;;;14.59;52.90
20019;BME280;10170;42.502;26.526;2023-04-28T07:44:25;100216.59;;;15.05;53.61
20019;BME280;10170;42.502;26.526;2023-04-28T07:46:52;100202.16;;;15.24;53.71
20019;BME280;10170;42.502;26.526;2023-04-28T07:49:19;100211.56;;;15.33;53.51
20019;BME280;10170;42.502;26.526;2023-04-28T07:51:46;100215.63;;;15.42;53.67
20019;BME280;10170;42.502;26.526;2023-04-28T07:54:13;100204.00;;;15.66;53.12
20019;BME280;10170;42.502;26.526;2023-04-28T07:56:40;100211.16;;;15.54;52.35
20019;BME280;10170;42.502;26.526;2023-04-28T07:59:07;100216.97;;;15.08;51.40
20019;BME280;10170;42.502;26.526;2023-04-28T08:01:34;100215.03;;;14.72;52.46
20019;BME280;10170;42.502;26.526;2023-04-28T08:04:01;100206.47;;;15.49;57.82
20019;BME280;10170;42.502;26.526;2023-04-28T08:06:29;100208.75;;;15.82;58.16
20019;BME280;10170;42.502;26.526;2023-04-28T08:08:56;100217.72;;;16.06;54.12
20019;BME280;10170;42.502;26.526;2023-04-28T08:11:23;100214.56;;;15.79;53.65
20019;BME280;10170;42.502;26.526;2023-04-28T08:13:50;100206.69;;;15.48;49.09
20019;BME280;10170;42.502;26.526;2023-04-28T08:16:17;100207.56;;;16.37;48.79
20019;BME280;10170;42.502;26.526;2023-04-28T08:18:45;100211.94;;;16.50;53.69
20019;BME280;10170;42.502;26.526;2023-04-28T08:21:12;100198.47;;;16.09;52.16
20019;BME280;10170;42.502;26.526;2023-04-28T08:23:40;100203.03;;;15.60;51.44
20019;BME280;10170;42.502;26.526;2023-04-28T08:26:07;100203.88;;;15.43;54.19
20019;BME280;10170;42.502;26.526;2023-04-28T08:28:34;100193.88;;;16.27;53.58
20019;BME280;10170;42.502;26.526;2023-04-28T08:31:02;100197.38;;;16.28;52.69
20019;BME280;10170;42.502;26.526;2023-04-28T08:33:31;100206.84;;;16.30;49.21
20019;BME280;10170;42.502;26.526;2023-04-28T08:35:57;100203.25;;;15.77;51.78
20019;BME280;10170;42.502;26.526;2023-04-28T08:38:25;100200.03;;;15.68;53.17
20019;BME280;10170;42.502;26.526;2023-04-28T08:40:52;100198.28;;;16.51;54.01
20019;BME280;10170;42.502;26.526;2023-04-28T08:43:19;100192.38;;;16.84;51.98
20019;BME280;10170;42.502;26.526;2023-04-28T08:45:47;100191.16;;;16.16;47.74
20019;BME280;10170;42.502;26.526;2023-04-28T08:48:21;100191.34;;;15.73;53.29
20019;BME280;10170;42.502;26.526;2023-04-28T08:50:52;100197.44;;;15.80;53.05
20019;BME280;10170;42.502;26.526;2023-04-28T08:53:24;100191.75;;;15.16;49.94
20019;BME280;10170;42.502;26.526;2023-04-28T08:55:56;100190.47;;;15.61;54.58
20019;BME280;10170;42.502;26.526;2023-04-28T08:58:24;100183.13;;;15.86;51.84
20019;BME280;10170;42.502;26.526;2023-04-28T09:00:52;100179.72;;;16.50;51.24
20019;BME280;10170;42.502;26.526;2023-04-28T09:03:19;100174.72;;;16.76;48.89
20019;BME280;10170;42.502;26.526;2023-04-28T09:05:47;100158.59;;;17.00;46.13
20019;BME280;10170;42.502;26.526;2023-04-28T09:08:14;100178.94;;;17.19;48.12
20019;BME280;10170;42.502;26.526;2023-04-28T09:10:41;100175.75;;;16.11;50.18
20019;BME280;10170;42.502;26.526;2023-04-28T09:13:08;100174.75;;;15.94;52.10
20019;BME280;10170;42.502;26.526;2023-04-28T09:15:36;100169.97;;;15.30;48.02
20019;BME280;10170;42.502;26.526;2023-04-28T09:18:05;100170.84;;;15.24;50.35
20019;BME280;10170;42.502;26.526;2023-04-28T09:20:34;100173.03;;;15.34;50.68
20019;BME280;10170;42.502;26.526;2023-04-28T09:23:19;100166.59;;;15.17;49.68
20019;BME280;10170;42.502;26.526;2023-04-28T09:26:05;100165.94;;;15.03;50.40
20019;BME280;10170;42.502;26.526;2023-04-28T09:28:34;100168.53;;;15.28;51.42
20019;BME280;10170;42.502;26.526;2023-04-28T09:31:02;100158.81;;;15.51;53.00
20019;BME280;10170;42.502;26.526;2023-04-28T09:33:29;100167.00;;;16.04;52.18
20019;BME280;10170;42.502;26.526;2023-04-28T09:35:57;100158.94;;;16.57;51.86
20019;BME280;10170;42.502;26.526;2023-04-28T09:38:24;100163.25;;;17.16;52.30
20019;BME280;10170;42.502;26.526;2023-04-28T09:40:59;100160.38;;;16.82;46.89
20019;BME280;10170;42.502;26.526;2023-04-28T09:43:34;100161.16;;;16.48;47.16
20019;BME280;10170;42.502;26.526;2023-04-28T09:46:02;100160.59;;;16.58;48.41
20019;BME280;10170;42.502;26.526;2023-04-28T09:48:34;100155.06;;;16.41;48.38
20019;BME280;10170;42.502;26.526;2023-04-28T09:51:03;100158.09;;;16.04;51.65
20019;BME280;10170;42.502;26.526;2023-04-28T09:53:32;100155.13;;;15.82;49.39
20019;BME280;10170;42.502;26.526;2023-04-28T09:56:01;100158.41;;;15.30;50.25
20019;BME280;10170;42.502;26.526;2023-04-28T09:58:29;100150.25;;;15.25;51.88
20019;BME280;10170;42.502;26.526;2023-04-28T10:00:59;100132.81;;;15.34;51.35
20019;BME280;10170;42.502;26.526;2023-04-28T10:03:29;100138.69;;;15.06;51.14
20019;BME280;10170;42.502;26.526;2023-04-28T10:05:57;100130.97;;;14.98;48.18
20019;BME280;10170;42.502;26.526;2023-04-28T10:08:26;100147.72;;;15.48;49.94
20019;BME280;10170;42.502;26.526;2023-04-28T10:10:53;100142.00;;;15.74;51.67
20019;BME280;10170;42.502;26.526;2023-04-28T10:13:21;100142.31;;;15.84;49.65
20019;BME280;10170;42.502;26.526;2023-04-28T10:15:49;100136.03;;;16.43;47.06
20019;BME280;10170;42.502;26.526;2023-04-28T10:18:16;100134.19;;;17.01;47.25
20019;BME280;10170;42.502;26.526;2023-04-28T10:20:45;100131.84;;;17.16;46.79
20019;BME280;10170;42.502;26.526;2023-04-28T10:25:55;100131.31;;;16.79;47.28
20019;BME280;10170;42.502;26.526;2023-04-28T10:28:23;100132.75;;;16.29;49.35
20019;BME280;10170;42.502;26.526;2023-04-28T10:31:11;100137.78;;;16.37;47.87
20019;BME280;10170;42.502;26.526;2023-04-28T10:33:39;100123.66;;;16.42;50.58
20019;BME280;10170;42.502;26.526;2023-04-28T10:36:07;100128.03;;;16.54;48.71
20019;BME280;10170;42.502;26.526;2023-04-28T10:38:35;100121.47;;;16.97;47.56
20019;BME280;10170;42.502;26.526;2023-04-28T10:41:02;100113.50;;;16.44;48.79
20019;BME280;10170;42.502;26.526;2023-04-28T10:56:25;100115.69;;;15.53;52.31
20019;BME280;10170;42.502;26.526;2023-04-28T10:58:59;100116.97;;;15.32;51.69
20019;BME280;10170;42.502;26.526;2023-04-28T11:01:29;100122.88;;;15.41;50.84
20019;BME280;10170;42.502;26.526;2023-04-28T11:04:08;100114.19;;;15.39;52.30
20019;BME280;10170;42.502;26.526;2023-04-28T11:06:45;100109.16;;;15.78;48.51
20019;BME280;10170;42.502;26.526;2023-04-28T11:14:37;100109.31;;;16.36;48.74
20019;BME280;10170;42.502;26.526;2023-04-28T11:17:08;100106.50;;;15.90;50.63
20019;BME280;10170;42.502;26.526;2023-04-28T11:19:36;100110.13;;;15.84;50.77
20019;BME280;10170;42.502;26.526;2023-04-28T11:22:12;100107.75;;;15.76;50.26
20019;BME280;10170;42.502;26.526;2023-04-28T11:24:39;100108.97;;;15.62;52.91
20019;BME280;10170;42.502;26.526;2023-04-28T11:27:05;100109.53;;;15.82;50.50
20019;BME280;10170;42.502;26.526;2023-04-28T11:29:36;100096.84;;;15.89;49.76
20019;BME280;10170;42.502;26.526;2023-04-28T11:32:05;100102.91;;;15.96;49.41
20019;BME280;10170;42.502;26.526;2023-04-28T11:34:33;100099.66;;;15.94;51.82
20019;BME280;10170;42.502;26.526;2023-04-28T11:37:00;100096.03;;;16.53;48.68
20019;BME280;10170;42.502;26.526;2023-04-28T11:39:29;100093.97;;;17.85;51.91
20019;BME280;10170;42.502;26.526;2023-04-28T11:42:01;100094.41;;;18.11;49.33
20019;BME280;10170;42.502;26.526;2023-04-28T11:44:29;100092.81;;;17.53;49.13
20019;BME280;10170;42.502;26.526;2023-04-28T11:46:58;100081.75;;;16.99;49.85
20019;BME280;10170;42.502;26.526;2023-04-28T11:49:31;100101.53;;;16.58;49.39
20019;BME280;10170;42.502;26.526;2023-04-28T11:52:06;100100.22;;;16.60;47.92
20019;BME280;10170;42.502;26.526;2023-04-28T11:54:34;100100.47;;;15.95;48.79
20019;BME280;10170;42.502;26.526;2023-04-28T11:57:02;100093.28;;;16.30;50.96
20019;BME280;10170;42.502;26.526;2023-04-28T11:59:35;100108.09;;;16.21;50.83
20019;BME280;10170;42.502;26.526;2023-04-28T12:02:05;100102.56;;;16.68;49.48
20019;BME280;10170;42.502;26.526;2023-04-28T12:04:40;100095.63;;;16.26;47.97
20019;BME280;10170;42.502;26.526;2023-04-28T12:07:10;100092.69;;;16.16;48.27
20019;BME280;10170;42.502;26.526;2023-04-28T12:09:43;100092.38;;;16.36;48.60
20019;BME280;10170;42.502;26.526;2023-04-28T12:12:12;100084.69;;;16.97;48.10
20019;BME280;10170;42.502;26.526;2023-04-28T12:14:56;100087.75;;;17.68;50.69
20019;BME280;10170;42.502;26.526;2023-04-28T12:19:57;100082.44;;;16.94;48.16
20019;BME280;10170;42.502;26.526;2023-04-28T12:22:24;100066.69;;;16.17;50.02
20019;BME280;10170;42.502;26.526;2023-04-28T12:25:05;100081.06;;;15.81;49.88
20019;BME280;10170;42.502;26.526;2023-04-28T12:27:34;100079.53;;;16.15;50.95
20019;BME280;10170;42.502;26.526;2023-04-28T12:32:47;100070.53;;;17.02;49.48
20019;BME280;10170;42.502;26.526;2023-04-28T12:35:14;100068.00;;;16.60;48.58
20019;BME280;10170;42.502;26.526;2023-04-28T12:37:42;100069.81;;;16.14;49.19
20019;BME280;10170;42.502;26.526;2023-04-28T12:40:10;100067.34;;;15.89;49.06
20019;BME280;10170;42.502;26.526;2023-04-28T12:42:36;100069.50;;;15.69;50.57
20019;BME280;10170;42.502;26.526;2023-04-28T12:45:05;100062.91;;;15.53;50.36
20019;BME280;10170;42.502;26.526;2023-04-28T12:47:32;100064.03;;;15.46;52.69
20019;BME280;10170;42.502;26.526;2023-04-28T12:50:00;100064.41;;;15.31;51.30
20019;BME280;10170;42.502;26.526;2023-04-28T12:52:27;100060.59;;;15.09;49.80
20019;BME280;10170;42.502;26.526;2023-04-28T12:54:54;100049.66;;;14.93;50.18
20019;BME280;10170;42.502;26.526;2023-04-28T12:57:21;100053.66;;;15.02;50.98
20019;BME280;10170;42.502;26.526;2023-04-28T12:59:47;100051.78;;;15.02;51.17
20019;BME280;10170;42.502;26.526;2023-04-28T13:02:14;100050.03;;;15.73;52.70
20019;BME280;10170;42.502;26.526;2023-04-28T13:04:41;100032.31;;;17.39;48.42
20019;BME280;10170;42.502;26.526;2023-04-28T13:07:12;100031.66;;;18.98;46.49
20019;BME280;10170;42.502;26.526;2023-04-28T13:09:39;100044.56;;;19.18;46.70